Hauptseite
METAR-TAF:

METAR-TAF

Flughäfen :

Kairo, Ägypten

Flughafen Kairo

Breite: 30-08N, Länge: 031-24E, Höhe: 64 m

Beobachtung

Neuester Wetterbericht von vor 33 Minuten, um 16:00 UTC
Wind 8 kt aus Ost/Nordost
Temperatur 22°C
Luftfeuchtigkeit 46%
Luftdruck 1019 hPa
Sichtweite: 6000 m

METAR: HECA 181600Z 06008KT 6000 NSC 22/10 Q1019 NOSIG

Zeit: 18:33 (16:33 UTC)

Prognose

Neuester Wetterbericht von vor 5 Stunden und 33 Minuten, um 11:00 UTC
Gültige Prognose vom 18 um 12 UTC bis 19 um 18 UTC
Wind 3 kt aus unterschiedlichen Richtungen
Sichtweite: 6000 m
Zeitweise
vom 18 um 12 UTC bis 18 um 18 UTC
Sichtweite: 4000 m
trockener Dunst
Zeitweise
vom 19 um 00 UTC bis 19 um 06 UTC
Sichtweite: 3000 m
feuchter Dunst
Übergehend zu
vom 19 um 06 UTC bis 19 um 08 UTC
Wind 7 kt aus Nordost

TAF: HECA 181100Z 1812/1918 VRB03KT 6000 NSC TEMPO 1812/1818 4000 HZ TEMPO 1900/1906 3000 BR BECMG 1906/1908 05007KT

Wetterbeobachtungen und Prognosen von mehr als 4000 Flughäfen (METAR und TAF Bericht).

Die verfügbaren Stationen werden durch gelbe und rote Markierungen auf der Karte dargestellt.

Führen Sie die Maus auf sie, um den Namen der Station zu sehen.

Darauf klicken, um die Beobachtung von Wetterbeobachtungen und Prognosen zu sehen.

Um die Karte zu ändern : klicken Sie auf den grünen Tasten mit einem schwarzen Kreuz Zum Vergrößern, auf den grünen Button mit einem Gedankenstrich zu verkleinern, oder auf die grünen Pfeile für benachbarte Karten.


METAR-TAF: